Time;durP1;ratioP1;P1;durP2;ratioP2;P2;SDS_P1;SDS_P2;PMS_P1;PMS_P2;Temp;Humidity;BMP_temperature;BMP_pressure;BME280_temperature;BME280_humidity;BME280_pressure;Samples;Min_cycle;Max_cycle;Signal;HPM_P1;HPM_P2
2022/09/28 00:32:01;;;;;;;;;;;;;;;;;;;;;
2022/09/28 00:39:44;;;;;;;;;;;;;;;;;;;;;
2022/09/28 00:44:02;;;;;;;;;;;;;;;;;;;;;
2022/09/28 01:05:51;;;;;;;2.45;0.85;;;10.80;1.00;;;;;;4685891;30;20456;-91
2022/09/28 01:09:56;;;;;;;1.25;0.70;;;10.70;1.00;;;;;;4702597;30;20064;-91
2022/09/28 01:14:03;;;;;;;2.58;0.95;;;10.70;1.00;;;;;;4662095;30;20078;-91
2022/09/28 01:22:03;;;;;;;1.75;0.90;;;10.70;1.00;;;;;;4692428;30;20107;-91
2022/09/28 01:30:03;;;;;;;2.58;0.80;;;10.70;1.00;;;;;;4670938;30;20515;-91
2022/09/28 01:37:58;;;;;;;2.88;0.77;;;10.70;1.00;;;;;;4763280;29;20111;-90
2022/09/28 01:41:40;;;;;;;1.15;0.70;;;10.70;1.00;;;;;;4794476;29;20058;-91
2022/09/28 01:58:38;;;;;;;1.58;0.60;;;10.70;1.00;;;;;;4697225;30;20123;-90
2022/09/28 02:02:11;;;;;;;1.98;0.57;;;10.70;1.00;;;;;;4723551;30;20059;-91
2022/09/28 02:05:39;;;;;;;1.23;0.35;;;10.70;1.00;;;;;;4727359;30;20056;-90
2022/09/28 02:17:43;;;;;;;;;;;;;;;;;;;;;
2022/09/28 02:22:06;;;;;;;;;;;;;;;;;;;;;
2022/09/28 02:26:11;;;;;;;0.73;0.30;;;10.60;1.00;;;;;;4666958;30;20413;-91
2022/09/28 02:29:52;;;;;;;1.80;0.40;;;10.60;1.00;;;;;;4719004;30;20049;-90
2022/09/28 02:37:34;;;;;;;1.00;0.45;;;10.60;1.00;;;;;;4753056;30;20060;-91
2022/09/28 02:45:10;;;;;;;2.47;0.40;;;10.60;1.00;;;;;;4654984;30;20133;-91
2022/09/28 02:48:59;;;;;;;1.13;0.30;;;10.60;1.00;;;;;;4653188;30;20074;-91
2022/09/28 02:52:38;;;;;;;2.30;0.47;;;10.60;1.00;;;;;;4663543;30;20054;-91
2022/09/28 02:56:02;;;;;;;3.83;0.70;;;10.60;1.00;;;;;;4657771;30;20078;-91
2022/09/28 02:59:38;;;;;;;1.85;0.43;;;10.60;1.00;;;;;;4683244;30;20070;-91
2022/09/28 03:03:08;;;;;;;1.38;0.47;;;10.50;1.00;;;;;;4658807;30;20489;-92
2022/09/28 03:06:22;;;;;;;1.10;0.32;;;10.50;1.00;;;;;;4656308;30;20057;-91
2022/09/28 03:09:39;;;;;;;1.63;0.40;;;10.50;1.00;;;;;;4663478;30;20086;-91
2022/09/28 03:12:33;;;;;;;0.60;0.20;;;10.50;1.00;;;;;;4732506;30;20055;-91
2022/09/28 03:15:30;;;;;;;1.10;0.50;;;10.50;1.00;;;;;;4721874;30;20052;-91
2022/09/28 03:18:49;;;;;;;0.65;0.40;;;10.50;1.00;;;;;;4728614;30;20067;-92
2022/09/28 03:36:59;;;;;;;1.02;0.75;;;10.50;1.00;;;;;;4805441;29;20059;-92
2022/09/28 03:44:38;;;;;;;;;;;;;;;;;;;;;
2022/09/28 03:51:56;;;;;;;0.95;0.22;;;10.50;1.00;;;;;;4766585;30;20067;-92
2022/09/28 03:55:15;;;;;;;1.42;0.20;;;10.50;1.00;;;;;;4777685;29;20051;-92
2022/09/28 03:58:35;;;;;;;1.27;0.22;;;10.40;1.00;;;;;;4781163;30;20059;-92
2022/09/28 04:02:10;;;;;;;0.73;0.60;;;10.40;1.00;;;;;;4771608;30;20032;-93
2022/09/28 04:05:08;;;;;;;2.22;0.47;;;10.40;1.00;;;;;;4774377;30;20055;-91
2022/09/28 04:08:20;;;;;;;1.95;0.52;;;10.40;1.00;;;;;;4755161;30;20155;-92
2022/09/28 04:11:15;;;;;;;0.63;0.28;;;10.40;1.00;;;;;;4754395;30;20044;-93
2022/09/28 04:26:05;;;;;;;0.70;0.28;;;10.40;1.00;;;;;;4929573;24;20074;-94
2022/09/28 19:37:21;;;;;;;1.40;0.40;;;18.30;1.00;;;;;;5065248;28;20450;-58
2022/09/28 19:39:48;;;;;;;2.08;0.68;;;18.40;1.00;;;;;;5046742;28;20104;-55
2022/09/28 19:42:14;;;;;;;0.68;0.30;;;18.50;1.00;;;;;;5046721;28;20564;-56
2022/09/28 19:44:42;;;;;;;1.73;0.40;;;18.40;1.00;;;;;;5045384;28;20052;-56
2022/09/28 19:47:11;;;;;;;0.68;0.30;;;18.50;1.00;;;;;;5049223;28;20067;-57
2022/09/28 19:49:39;;;;;;;0.73;0.57;;;18.40;1.00;;;;;;5043585;28;20049;-58
2022/09/28 19:52:15;;;;;;;3.03;0.60;;;18.40;1.00;;;;;;5046989;28;21074;-57
2022/09/28 19:54:55;;;;;;;3.10;0.70;;;18.40;1.00;;;;;;5036552;28;20045;-57
2022/09/28 19:57:28;;;;;;;0.90;0.68;;;18.40;1.00;;;;;;5030016;28;20076;-57
2022/09/28 19:59:55;;;;;;;0.95;0.45;;;18.40;1.00;;;;;;5030161;28;20044;-53
2022/09/28 20:02:31;;;;;;;1.05;0.30;;;18.40;1.00;;;;;;5029496;28;20046;-57
2022/09/28 20:04:58;;;;;;;2.15;0.40;;;18.40;1.00;;;;;;5029863;28;20059;-57
2022/09/28 20:07:25;;;;;;;2.25;0.50;;;18.40;1.00;;;;;;5030427;28;20052;-56
2022/09/28 20:09:51;;;;;;;1.83;0.60;;;18.40;1.00;;;;;;5030285;28;20507;-58
2022/09/28 20:12:18;;;;;;;0.88;0.35;;;18.40;1.00;;;;;;5029481;28;20037;-57
2022/09/28 20:14:45;;;;;;;2.05;0.40;;;18.40;1.00;;;;;;5030539;28;20494;-58
2022/09/28 20:17:12;;;;;;;1.02;0.50;;;18.40;1.00;;;;;;5029914;28;20068;-57
2022/09/28 20:19:39;;;;;;;1.13;0.40;;;18.40;1.00;;;;;;5030041;28;20046;-57
2022/09/28 20:22:06;;;;;;;2.25;0.90;;;18.40;1.00;;;;;;5029383;28;20037;-56
2022/09/28 20:24:32;;;;;;;1.73;0.82;;;18.40;1.00;;;;;;5029770;28;20507;-58
2022/09/28 20:27:00;;;;;;;1.20;0.85;;;18.40;1.00;;;;;;5029814;28;20046;-59
2022/09/28 20:29:27;;;;;;;2.08;1.15;;;18.40;1.00;;;;;;5030326;28;20090;-58
2022/09/28 20:31:54;;;;;;;3.20;0.70;;;18.40;1.00;;;;;;5029579;28;20045;-57
2022/09/28 20:34:20;;;;;;;1.65;0.55;;;18.40;1.00;;;;;;5029657;28;20041;-58
2022/09/28 20:36:47;;;;;;;1.63;0.40;;;18.40;1.00;;;;;;5029610;28;20033;-57
2022/09/28 20:39:14;;;;;;;2.85;0.65;;;18.40;1.00;;;;;;5029783;28;20064;-57
2022/09/28 20:41:41;;;;;;;0.90;0.40;;;18.40;1.00;;;;;;5029416;28;20464;-56
2022/09/28 20:44:08;;;;;;;2.45;0.50;;;18.40;1.00;;;;;;5029447;28;20472;-58
2022/09/28 20:46:36;;;;;;;0.90;0.50;;;18.40;1.00;;;;;;5032128;28;20052;-57
2022/09/28 20:49:03;;;;;;;1.45;0.40;;;18.40;1.00;;;;;;5019588;28;20045;-58
2022/09/28 20:51:31;;;;;;;0.68;0.40;;;18.40;1.00;;;;;;5027678;28;20045;-56
2022/09/28 20:53:58;;;;;;;1.05;0.75;;;18.40;1.00;;;;;;5024305;28;20400;-59
2022/09/28 20:56:36;;;;;;;1.08;0.45;;;18.40;1.00;;;;;;5026423;28;20041;-55
2022/09/28 20:59:06;;;;;;;1.10;0.52;;;18.40;1.00;;;;;;5023370;28;20040;-59
2022/09/28 21:01:33;;;;;;;1.45;0.50;;;18.40;1.00;;;;;;5016041;28;20049;-56
2022/09/28 21:04:02;;;;;;;4.40;0.70;;;18.40;1.00;;;;;;5015959;28;20038;-55
2022/09/28 21:06:31;;;;;;;1.20;0.57;;;18.40;1.00;;;;;;5016307;28;20042;-58
2022/09/28 21:08:58;;;;;;;0.95;0.70;;;18.40;1.00;;;;;;5016048;28;20050;-58
2022/09/28 21:11:27;;;;;;;2.10;0.50;;;18.40;1.00;;;;;;5016229;28;20492;-57
2022/09/28 21:13:57;;;;;;;1.85;0.65;;;18.40;1.00;;;;;;5015654;28;20041;-57
2022/09/28 21:16:25;;;;;;;1.85;0.40;;;18.40;1.00;;;;;;5016238;28;20042;-57
2022/09/28 21:18:52;;;;;;;1.13;0.40;;;18.40;1.00;;;;;;5016019;28;20046;-56
2022/09/28 21:21:21;;;;;;;3.72;0.45;;;18.40;1.00;;;;;;5015803;28;20041;-54
2022/09/28 21:23:55;;;;;;;1.88;0.40;;;18.40;1.00;;;;;;5015126;28;20088;-57
2022/09/28 21:26:24;;;;;;;6.82;0.60;;;18.40;1.00;;;;;;5015770;28;20056;-56
2022/09/28 21:28:56;;;;;;;0.70;0.40;;;18.30;1.00;;;;;;5015830;28;20052;-57
2022/09/28 21:31:25;;;;;;;0.93;0.35;;;18.40;1.00;;;;;;5015734;28;20450;-56
2022/09/28 21:33:56;;;;;;;1.33;0.50;;;18.30;1.00;;;;;;5015594;28;20088;-57
2022/09/28 21:36:23;;;;;;;2.72;0.75;;;18.30;1.00;;;;;;5015169;28;20519;-57
2022/09/28 21:38:52;;;;;;;1.35;0.55;;;18.30;1.00;;;;;;5015353;28;20503;-56
2022/09/28 21:41:19;;;;;;;0.90;0.60;;;18.30;1.00;;;;;;5015362;28;20092;-57
2022/09/28 21:43:45;;;;;;;0.88;0.50;;;18.30;1.00;;;;;;5015335;28;20472;-57
2022/09/28 21:46:12;;;;;;;0.68;0.30;;;18.30;1.00;;;;;;5015573;28;20052;-57
2022/09/28 21:48:39;;;;;;;2.15;0.63;;;18.30;1.00;;;;;;5014952;28;20042;-57
2022/09/28 21:51:09;;;;;;;1.10;0.50;;;18.30;1.00;;;;;;5015775;28;20046;-57
2022/09/28 21:53:36;;;;;;;3.35;0.52;;;18.30;1.00;;;;;;5022260;28;20044;-57
2022/09/28 21:56:06;;;;;;;1.40;0.50;;;18.30;1.00;;;;;;5029103;28;20042;-55
2022/09/28 21:58:34;;;;;;;0.98;0.55;;;18.30;1.00;;;;;;5034119;28;20037;-57
2022/09/28 22:01:04;;;;;;;4.43;0.60;;;18.30;1.00;;;;;;5034476;28;20060;-57
2022/09/28 22:03:32;;;;;;;1.40;0.60;;;18.30;1.00;;;;;;5034326;28;20045;-52
2022/09/28 22:05:59;;;;;;;0.88;0.55;;;18.30;1.00;;;;;;5034928;28;20160;-56
2022/09/28 22:08:26;;;;;;;2.47;0.40;;;18.30;1.00;;;;;;5034818;28;20088;-57
2022/09/28 22:11:18;;;;;;;2.58;0.60;;;18.30;1.00;;;;;;5034074;28;20111;-56
2022/09/28 22:13:50;;;;;;;1.20;0.60;;;18.30;1.00;;;;;;5031818;28;20061;-53
2022/09/28 22:16:19;;;;;;;3.13;0.77;;;18.30;1.00;;;;;;5034450;28;20515;-56
2022/09/28 22:18:47;;;;;;;3.08;0.80;;;18.30;1.00;;;;;;5034483;28;20487;-57
2022/09/28 22:21:28;;;;;;;1.85;0.60;;;18.30;1.00;;;;;;5034773;28;20383;-56
2022/09/28 22:24:00;;;;;;;1.80;0.43;;;18.30;1.00;;;;;;5033947;28;20041;-56
2022/09/28 22:26:30;;;;;;;2.75;0.40;;;18.30;1.00;;;;;;5034078;28;20398;-57
2022/09/28 22:28:59;;;;;;;2.42;0.75;;;18.30;1.00;;;;;;5033919;28;20053;-57
2022/09/28 22:31:32;;;;;;;4.68;0.40;;;18.30;1.00;;;;;;5034389;28;20092;-57
2022/09/28 22:33:59;;;;;;;1.08;0.38;;;18.20;1.00;;;;;;5034086;28;20092;-57
2022/09/28 22:36:27;;;;;;;0.80;0.63;;;18.30;1.00;;;;;;5033881;28;20498;-56
2022/09/28 22:38:55;;;;;;;3.05;0.50;;;18.20;1.00;;;;;;5033996;28;20120;-57
2022/09/28 22:41:23;;;;;;;1.10;0.63;;;18.20;1.00;;;;;;5034215;28;20111;-56
2022/09/28 22:43:52;;;;;;;1.75;0.32;;;18.20;1.00;;;;;;5033682;28;20045;-57
2022/09/28 22:46:22;;;;;;;2.03;0.57;;;18.20;1.00;;;;;;5034418;28;20112;-56
2022/09/28 22:48:51;;;;;;;2.97;0.57;;;18.20;1.00;;;;;;5033910;28;20041;-56
2022/09/28 22:51:19;;;;;;;0.80;0.55;;;18.30;1.00;;;;;;5034311;28;20050;-55
2022/09/28 22:53:46;;;;;;;2.67;0.73;;;18.30;1.00;;;;;;5033477;28;20132;-56
2022/09/28 22:56:13;;;;;;;1.20;0.40;;;18.40;1.00;;;;;;5033748;28;20041;-54
2022/09/28 22:58:45;;;;;;;1.67;0.43;;;18.40;1.00;;;;;;5033823;28;20041;-56
2022/09/28 23:01:20;;;;;;;1.25;0.32;;;18.40;1.00;;;;;;5033674;28;20535;-57
2022/09/28 23:03:49;;;;;;;1.08;0.50;;;18.50;1.00;;;;;;5033890;28;20475;-58
2022/09/28 23:09:59;;;;;;;1.40;0.65;;;18.50;1.00;;;;;;5033480;28;20048;-57
2022/09/28 23:12:26;;;;;;;3.83;0.60;;;18.50;1.00;;;;;;5033232;28;20132;-58
2022/09/28 23:14:53;;;;;;;1.85;0.85;;;18.50;1.00;;;;;;5033487;28;20042;-56
2022/09/28 23:17:20;;;;;;;1.60;0.60;;;18.60;1.00;;;;;;5033318;28;20149;-57
2022/09/28 23:19:47;;;;;;;1.98;0.50;;;18.60;1.00;;;;;;5033411;28;20091;-57
2022/09/28 23:22:14;;;;;;;3.47;0.50;;;18.70;1.00;;;;;;5033364;28;20050;-54
2022/09/28 23:24:41;;;;;;;1.90;0.57;;;18.60;1.00;;;;;;5033497;28;20041;-52
2022/09/28 23:27:08;;;;;;;1.48;0.50;;;18.60;1.00;;;;;;5033250;28;20048;-51
2022/09/28 23:29:35;;;;;;;1.75;0.68;;;18.80;1.00;;;;;;5033292;28;20081;-49
2022/09/28 23:32:02;;;;;;;2.60;0.73;;;18.70;1.00;;;;;;5033263;28;20132;-49
2022/09/28 23:34:28;;;;;;;1.05;0.60;;;18.80;1.00;;;;;;5033587;28;20487;-51
2022/09/28 23:36:55;;;;;;;1.20;0.70;;;18.80;1.00;;;;;;5033129;28;20049;-55
2022/09/28 23:39:22;;;;;;;1.33;0.63;;;18.80;1.00;;;;;;5033474;28;20064;-55
2022/09/28 23:41:49;;;;;;;2.65;0.70;;;18.80;1.00;;;;;;5032913;28;20049;-55
2022/09/28 23:44:16;;;;;;;2.70;0.40;;;18.70;1.00;;;;;;5033397;28;20056;-56
2022/09/28 23:46:44;;;;;;;1.63;0.55;;;18.80;1.00;;;;;;5033181;28;20047;-53
2022/09/28 23:49:11;;;;;;;1.85;0.70;;;18.80;1.00;;;;;;5033447;28;20472;-52
2022/09/28 23:51:38;;;;;;;2.08;0.70;;;18.70;1.00;;;;;;5033303;28;20046;-53
2022/09/28 23:54:05;;;;;;;0.73;0.47;;;18.70;1.00;;;;;;5032948;28;20045;-54
2022/09/28 23:56:32;;;;;;;0.88;0.40;;;18.80;1.00;;;;;;5033391;28;20156;-53
2022/09/28 23:58:59;;;;;;;1.13;0.30;;;18.80;1.00;;;;;;5033206;28;20037;-55
